Groveland, New York
Current Conditions -  °F | °C
As of 10:54 AM on Thursday 23 Oct 2014 (Local Time) from KDSV Reporting Station
Overcast Overcast  
Wind Chill: 10°   Ceiling: 2500
Heat Index: 10°   Visibility: 10mi
Dew Point:   Wind: 17mph
Humidity: 68%   Direction: 340°NNW
Pressure: 30.08"   Gusts: 26mph
Location:  42.66°N, 77.77°W
Report Text: KDSV 231454Z AUTO 34015G23KT 10SM BKN025 OVC049 10/04 A3008 RMK AO2 SLP196 T01000044 57005
Loading
Personal Weather Stations






























Interactive Weather Map
Tropical Storm Tracking
New forecast layout! Learn more

10-Day Weather Forecast

Advertisements
Track Severe Weather on mobile